sensor_id;sensor_type;location;lat;lon;timestamp;P1;durP1;ratioP1;P2;durP2;ratioP2
63312;SDS011;49442;45.640;13.812;2024-01-30T00:01:52;7.50;;;5.20;;
63312;SDS011;49442;45.640;13.812;2024-01-30T00:04:17;7.88;;;4.22;;
63312;SDS011;49442;45.640;13.812;2024-01-30T00:06:44;8.98;;;4.72;;
63312;SDS011;49442;45.640;13.812;2024-01-30T00:09:10;8.68;;;4.43;;
63312;SDS011;49442;45.640;13.812;2024-01-30T00:11:36;11.25;;;4.95;;
63312;SDS011;49442;45.640;13.812;2024-01-30T00:14:03;8.25;;;4.38;;
63312;SDS011;49442;45.640;13.812;2024-01-30T00:16:29;8.30;;;4.63;;
63312;SDS011;49442;45.640;13.812;2024-01-30T00:18:55;8.30;;;4.63;;
63312;SDS011;49442;45.640;13.812;2024-01-30T00:21:21;9.23;;;4.43;;
63312;SDS011;49442;45.640;13.812;2024-01-30T00:23:47;11.15;;;4.53;;
63312;SDS011;49442;45.640;13.812;2024-01-30T00:26:13;10.40;;;5.38;;
63312;SDS011;49442;45.640;13.812;2024-01-30T00:28:40;8.35;;;4.70;;
63312;SDS011;49442;45.640;13.812;2024-01-30T00:31:06;10.40;;;5.53;;
63312;SDS011;49442;45.640;13.812;2024-01-30T00:33:32;10.95;;;4.75;;
63312;SDS011;49442;45.640;13.812;2024-01-30T00:35:57;9.13;;;4.85;;
63312;SDS011;49442;45.640;13.812;2024-01-30T00:38:23;8.23;;;4.28;;
63312;SDS011;49442;45.640;13.812;2024-01-30T00:40:49;10.63;;;4.95;;
63312;SDS011;49442;45.640;13.812;2024-01-30T00:43:15;8.55;;;5.20;;
63312;SDS011;49442;45.640;13.812;2024-01-30T00:45:41;9.15;;;4.18;;
63312;SDS011;49442;45.640;13.812;2024-01-30T00:48:08;9.05;;;4.10;;
63312;SDS011;49442;45.640;13.812;2024-01-30T00:50:34;7.72;;;4.40;;
63312;SDS011;49442;45.640;13.812;2024-01-30T00:52:59;8.55;;;4.88;;
63312;SDS011;49442;45.640;13.812;2024-01-30T00:55:25;9.35;;;4.43;;
63312;SDS011;49442;45.640;13.812;2024-01-30T00:57:51;8.23;;;4.55;;
63312;SDS011;49442;45.640;13.812;2024-01-30T01:00:16;15.75;;;4.75;;
63312;SDS011;49442;45.640;13.812;2024-01-30T01:02:42;11.48;;;4.07;;
63312;SDS011;49442;45.640;13.812;2024-01-30T01:05:08;7.78;;;5.60;;
63312;SDS011;49442;45.640;13.812;2024-01-30T01:07:34;7.93;;;4.63;;
63312;SDS011;49442;45.640;13.812;2024-01-30T01:10:00;8.55;;;4.88;;
63312;SDS011;49442;45.640;13.812;2024-01-30T01:12:26;8.85;;;3.97;;
63312;SDS011;49442;45.640;13.812;2024-01-30T01:14:51;10.27;;;5.03;;
63312;SDS011;49442;45.640;13.812;2024-01-30T01:17:17;8.00;;;4.20;;
63312;SDS011;49442;45.640;13.812;2024-01-30T01:19:43;6.25;;;4.35;;
63312;SDS011;49442;45.640;13.812;2024-01-30T01:22:09;6.05;;;3.90;;
63312;SDS011;49442;45.640;13.812;2024-01-30T01:24:35;8.27;;;4.63;;
63312;SDS011;49442;45.640;13.812;2024-01-30T01:27:01;9.75;;;4.07;;
63312;SDS011;49442;45.640;13.812;2024-01-30T01:29:27;7.88;;;4.07;;
63312;SDS011;49442;45.640;13.812;2024-01-30T01:31:56;7.55;;;3.90;;
63312;SDS011;49442;45.640;13.812;2024-01-30T01:34:22;8.10;;;4.75;;
63312;SDS011;49442;45.640;13.812;2024-01-30T01:36:49;8.60;;;4.32;;
63312;SDS011;49442;45.640;13.812;2024-01-30T01:39:15;7.57;;;4.50;;
63312;SDS011;49442;45.640;13.812;2024-01-30T01:41:41;5.28;;;4.30;;
63312;SDS011;49442;45.640;13.812;2024-01-30T01:44:07;6.15;;;4.05;;
63312;SDS011;49442;45.640;13.812;2024-01-30T01:46:33;10.10;;;3.95;;
63312;SDS011;49442;45.640;13.812;2024-01-30T01:49:00;9.45;;;4.18;;
63312;SDS011;49442;45.640;13.812;2024-01-30T01:51:29;19.50;;;5.05;;
63312;SDS011;49442;45.640;13.812;2024-01-30T01:53:57;6.45;;;4.57;;
63312;SDS011;49442;45.640;13.812;2024-01-30T01:56:26;6.35;;;4.07;;
63312;SDS011;49442;45.640;13.812;2024-01-30T01:58:54;8.00;;;4.03;;
63312;SDS011;49442;45.640;13.812;2024-01-30T02:01:20;7.43;;;4.22;;
63312;SDS011;49442;45.640;13.812;2024-01-30T02:03:46;9.20;;;4.05;;
63312;SDS011;49442;45.640;13.812;2024-01-30T02:06:13;7.18;;;3.88;;
63312;SDS011;49442;45.640;13.812;2024-01-30T02:08:40;7.07;;;4.78;;
63312;SDS011;49442;45.640;13.812;2024-01-30T02:11:06;7.57;;;4.20;;
63312;SDS011;49442;45.640;13.812;2024-01-30T02:13:32;9.73;;;4.38;;
63312;SDS011;49442;45.640;13.812;2024-01-30T02:15:58;9.88;;;4.00;;
63312;SDS011;49442;45.640;13.812;2024-01-30T02:18:23;7.03;;;3.97;;
63312;SDS011;49442;45.640;13.812;2024-01-30T02:20:49;7.93;;;4.05;;
63312;SDS011;49442;45.640;13.812;2024-01-30T02:23:18;8.18;;;4.47;;
63312;SDS011;49442;45.640;13.812;2024-01-30T02:25:45;8.32;;;4.07;;
63312;SDS011;49442;45.640;13.812;2024-01-30T02:28:14;7.28;;;4.13;;
63312;SDS011;49442;45.640;13.812;2024-01-30T02:30:39;7.43;;;3.83;;
63312;SDS011;49442;45.640;13.812;2024-01-30T02:33:07;5.78;;;3.67;;
63312;SDS011;49442;45.640;13.812;2024-01-30T02:35:33;8.68;;;4.50;;
63312;SDS011;49442;45.640;13.812;2024-01-30T02:37:59;10.63;;;4.60;;
63312;SDS011;49442;45.640;13.812;2024-01-30T02:40:25;9.85;;;4.25;;
63312;SDS011;49442;45.640;13.812;2024-01-30T02:42:50;5.43;;;4.13;;
63312;SDS011;49442;45.640;13.812;2024-01-30T02:45:16;8.30;;;5.00;;
63312;SDS011;49442;45.640;13.812;2024-01-30T02:47:42;12.25;;;4.88;;
63312;SDS011;49442;45.640;13.812;2024-01-30T02:50:08;7.13;;;4.10;;
63312;SDS011;49442;45.640;13.812;2024-01-30T02:52:34;8.25;;;4.68;;
63312;SDS011;49442;45.640;13.812;2024-01-30T02:55:00;7.05;;;4.35;;
63312;SDS011;49442;45.640;13.812;2024-01-30T02:57:27;7.15;;;3.40;;
63312;SDS011;49442;45.640;13.812;2024-01-30T02:59:53;6.95;;;4.35;;
63312;SDS011;49442;45.640;13.812;2024-01-30T03:02:19;10.55;;;4.72;;
63312;SDS011;49442;45.640;13.812;2024-01-30T03:04:45;8.95;;;4.20;;
63312;SDS011;49442;45.640;13.812;2024-01-30T03:07:11;7.28;;;4.65;;
63312;SDS011;49442;45.640;13.812;2024-01-30T03:09:36;8.05;;;4.30;;
63312;SDS011;49442;45.640;13.812;2024-01-30T03:12:03;9.43;;;4.13;;
63312;SDS011;49442;45.640;13.812;2024-01-30T03:14:32;7.28;;;3.72;;
63312;SDS011;49442;45.640;13.812;2024-01-30T03:16:58;8.48;;;4.30;;
63312;SDS011;49442;45.640;13.812;2024-01-30T03:19:23;12.15;;;4.47;;
63312;SDS011;49442;45.640;13.812;2024-01-30T03:21:49;7.35;;;4.80;;
63312;SDS011;49442;45.640;13.812;2024-01-30T03:24:16;5.80;;;4.10;;
63312;SDS011;49442;45.640;13.812;2024-01-30T03:26:42;12.40;;;4.38;;
63312;SDS011;49442;45.640;13.812;2024-01-30T03:29:08;5.82;;;3.72;;
63312;SDS011;49442;45.640;13.812;2024-01-30T03:31:34;10.02;;;4.30;;
63312;SDS011;49442;45.640;13.812;2024-01-30T03:34:00;8.02;;;4.00;;
63312;SDS011;49442;45.640;13.812;2024-01-30T03:36:26;7.13;;;3.55;;
63312;SDS011;49442;45.640;13.812;2024-01-30T03:38:52;17.63;;;4.50;;
63312;SDS011;49442;45.640;13.812;2024-01-30T03:41:17;9.10;;;4.00;;
63312;SDS011;49442;45.640;13.812;2024-01-30T03:43:43;9.55;;;3.90;;
63312;SDS011;49442;45.640;13.812;2024-01-30T03:46:11;7.32;;;4.32;;
63312;SDS011;49442;45.640;13.812;2024-01-30T03:48:37;7.00;;;3.78;;
63312;SDS011;49442;45.640;13.812;2024-01-30T03:51:04;9.38;;;4.65;;
63312;SDS011;49442;45.640;13.812;2024-01-30T03:53:30;8.15;;;4.15;;
63312;SDS011;49442;45.640;13.812;2024-01-30T03:55:56;6.07;;;3.78;;
63312;SDS011;49442;45.640;13.812;2024-01-30T03:58:21;8.63;;;4.35;;
63312;SDS011;49442;45.640;13.812;2024-01-30T04:00:47;7.07;;;3.88;;
63312;SDS011;49442;45.640;13.812;2024-01-30T04:03:16;8.77;;;4.97;;
63312;SDS011;49442;45.640;13.812;2024-01-30T04:05:42;6.47;;;4.07;;
63312;SDS011;49442;45.640;13.812;2024-01-30T04:08:08;6.63;;;3.97;;
63312;SDS011;49442;45.640;13.812;2024-01-30T04:10:34;8.73;;;4.63;;
63312;SDS011;49442;45.640;13.812;2024-01-30T04:13:00;10.48;;;4.80;;
63312;SDS011;49442;45.640;13.812;2024-01-30T04:15:26;11.82;;;4.20;;
63312;SDS011;49442;45.640;13.812;2024-01-30T04:17:52;8.68;;;3.90;;
63312;SDS011;49442;45.640;13.812;2024-01-30T04:20:17;8.95;;;3.90;;
63312;SDS011;49442;45.640;13.812;2024-01-30T04:22:44;10.07;;;4.57;;
63312;SDS011;49442;45.640;13.812;2024-01-30T04:25:10;6.72;;;4.20;;
63312;SDS011;49442;45.640;13.812;2024-01-30T04:27:36;10.38;;;4.03;;
63312;SDS011;49442;45.640;13.812;2024-01-30T04:30:02;9.55;;;4.30;;
63312;SDS011;49442;45.640;13.812;2024-01-30T04:32:28;13.43;;;4.15;;
63312;SDS011;49442;45.640;13.812;2024-01-30T04:34:54;8.27;;;3.50;;
63312;SDS011;49442;45.640;13.812;2024-01-30T04:37:20;8.25;;;4.15;;
63312;SDS011;49442;45.640;13.812;2024-01-30T04:39:46;7.90;;;4.22;;
63312;SDS011;49442;45.640;13.812;2024-01-30T04:42:11;7.93;;;4.00;;
63312;SDS011;49442;45.640;13.812;2024-01-30T04:44:37;9.20;;;4.22;;
63312;SDS011;49442;45.640;13.812;2024-01-30T04:47:03;6.80;;;3.70;;
63312;SDS011;49442;45.640;13.812;2024-01-30T04:49:31;10.82;;;3.88;;
63312;SDS011;49442;45.640;13.812;2024-01-30T04:51:56;9.00;;;4.72;;
63312;SDS011;49442;45.640;13.812;2024-01-30T04:54:23;6.82;;;4.07;;
63312;SDS011;49442;45.640;13.812;2024-01-30T04:56:48;8.50;;;4.25;;
63312;SDS011;49442;45.640;13.812;2024-01-30T04:59:14;6.97;;;4.10;;
63312;SDS011;49442;45.640;13.812;2024-01-30T05:01:40;10.77;;;4.30;;
63312;SDS011;49442;45.640;13.812;2024-01-30T05:04:09;9.60;;;4.05;;
63312;SDS011;49442;45.640;13.812;2024-01-30T05:06:35;11.55;;;4.20;;
63312;SDS011;49442;45.640;13.812;2024-01-30T05:09:00;11.82;;;3.90;;
63312;SDS011;49442;45.640;13.812;2024-01-30T05:11:26;8.00;;;3.97;;
63312;SDS011;49442;45.640;13.812;2024-01-30T05:13:52;7.78;;;4.05;;
63312;SDS011;49442;45.640;13.812;2024-01-30T05:16:17;9.02;;;4.32;;
63312;SDS011;49442;45.640;13.812;2024-01-30T05:18:43;7.28;;;3.65;;
63312;SDS011;49442;45.640;13.812;2024-01-30T05:21:10;7.00;;;3.97;;
63312;SDS011;49442;45.640;13.812;2024-01-30T05:23:36;10.98;;;3.85;;
63312;SDS011;49442;45.640;13.812;2024-01-30T05:26:01;10.30;;;4.00;;
63312;SDS011;49442;45.640;13.812;2024-01-30T05:28:28;9.30;;;4.10;;
63312;SDS011;49442;45.640;13.812;2024-01-30T05:30:55;7.45;;;3.55;;
63312;SDS011;49442;45.640;13.812;2024-01-30T05:33:21;8.40;;;4.60;;
63312;SDS011;49442;45.640;13.812;2024-01-30T05:35:47;8.60;;;4.30;;
63312;SDS011;49442;45.640;13.812;2024-01-30T05:38:13;5.93;;;4.13;;
63312;SDS011;49442;45.640;13.812;2024-01-30T05:40:40;7.30;;;3.80;;
63312;SDS011;49442;45.640;13.812;2024-01-30T05:43:06;9.05;;;3.78;;
63312;SDS011;49442;45.640;13.812;2024-01-30T05:45:33;11.93;;;3.85;;
63312;SDS011;49442;45.640;13.812;2024-01-30T05:48:00;25.58;;;4.63;;
63312;SDS011;49442;45.640;13.812;2024-01-30T05:50:26;10.98;;;4.57;;
63312;SDS011;49442;45.640;13.812;2024-01-30T05:52:52;6.97;;;4.07;;
63312;SDS011;49442;45.640;13.812;2024-01-30T05:55:18;11.82;;;4.45;;
63312;SDS011;49442;45.640;13.812;2024-01-30T05:57:43;10.13;;;4.35;;
63312;SDS011;49442;45.640;13.812;2024-01-30T06:00:09;11.00;;;4.22;;
63312;SDS011;49442;45.640;13.812;2024-01-30T06:02:35;7.45;;;4.18;;
63312;SDS011;49442;45.640;13.812;2024-01-30T06:05:01;7.95;;;4.32;;
63312;SDS011;49442;45.640;13.812;2024-01-30T06:07:27;7.50;;;3.90;;
63312;SDS011;49442;45.640;13.812;2024-01-30T06:09:53;7.90;;;4.38;;
63312;SDS011;49442;45.640;13.812;2024-01-30T06:12:19;10.20;;;4.45;;
63312;SDS011;49442;45.640;13.812;2024-01-30T06:14:44;8.80;;;3.60;;
63312;SDS011;49442;45.640;13.812;2024-01-30T06:17:10;6.95;;;4.00;;
63312;SDS011;49442;45.640;13.812;2024-01-30T06:19:37;5.43;;;3.97;;
63312;SDS011;49442;45.640;13.812;2024-01-30T06:22:04;11.35;;;4.28;;
63312;SDS011;49442;45.640;13.812;2024-01-30T06:24:29;9.98;;;4.05;;
63312;SDS011;49442;45.640;13.812;2024-01-30T06:26:55;13.88;;;4.53;;
63312;SDS011;49442;45.640;13.812;2024-01-30T06:29:21;21.55;;;4.07;;
63312;SDS011;49442;45.640;13.812;2024-01-30T06:31:47;9.00;;;4.40;;
63312;SDS011;49442;45.640;13.812;2024-01-30T06:34:12;12.25;;;5.28;;
63312;SDS011;49442;45.640;13.812;2024-01-30T06:36:38;13.80;;;4.95;;
63312;SDS011;49442;45.640;13.812;2024-01-30T06:39:04;12.82;;;4.82;;
63312;SDS011;49442;45.640;13.812;2024-01-30T06:41:30;11.38;;;5.00;;
63312;SDS011;49442;45.640;13.812;2024-01-30T06:43:56;11.23;;;4.70;;
63312;SDS011;49442;45.640;13.812;2024-01-30T06:46:22;10.70;;;4.88;;
63312;SDS011;49442;45.640;13.812;2024-01-30T06:48:48;13.73;;;5.38;;
63312;SDS011;49442;45.640;13.812;2024-01-30T06:51:13;16.52;;;5.60;;
63312;SDS011;49442;45.640;13.812;2024-01-30T06:53:39;8.85;;;3.78;;
63312;SDS011;49442;45.640;13.812;2024-01-30T06:56:05;8.38;;;4.78;;
63312;SDS011;49442;45.640;13.812;2024-01-30T06:58:31;25.42;;;7.13;;
63312;SDS011;49442;45.640;13.812;2024-01-30T07:00:57;14.82;;;4.53;;
63312;SDS011;49442;45.640;13.812;2024-01-30T07:03:23;12.50;;;3.75;;
63312;SDS011;49442;45.640;13.812;2024-01-30T07:05:49;16.52;;;5.07;;
63312;SDS011;49442;45.640;13.812;2024-01-30T07:08:15;8.77;;;4.95;;
63312;SDS011;49442;45.640;13.812;2024-01-30T07:10:42;9.38;;;5.05;;
63312;SDS011;49442;45.640;13.812;2024-01-30T07:13:09;12.88;;;5.47;;
63312;SDS011;49442;45.640;13.812;2024-01-30T07:15:38;9.20;;;4.28;;
63312;SDS011;49442;45.640;13.812;2024-01-30T07:18:04;9.90;;;5.32;;
63312;SDS011;49442;45.640;13.812;2024-01-30T07:20:30;12.68;;;4.93;;
63312;SDS011;49442;45.640;13.812;2024-01-30T07:23:00;10.55;;;4.13;;
63312;SDS011;49442;45.640;13.812;2024-01-30T07:25:26;12.60;;;5.10;;
63312;SDS011;49442;45.640;13.812;2024-01-30T07:27:55;8.70;;;4.43;;
63312;SDS011;49442;45.640;13.812;2024-01-30T07:30:21;8.35;;;4.80;;
63312;SDS011;49442;45.640;13.812;2024-01-30T07:32:48;16.45;;;5.35;;
63312;SDS011;49442;45.640;13.812;2024-01-30T07:35:14;13.23;;;6.13;;
63312;SDS011;49442;45.640;13.812;2024-01-30T07:37:40;23.67;;;5.97;;
63312;SDS011;49442;45.640;13.812;2024-01-30T07:40:06;30.38;;;6.00;;
63312;SDS011;49442;45.640;13.812;2024-01-30T07:42:32;23.42;;;5.45;;
63312;SDS011;49442;45.640;13.812;2024-01-30T07:44:59;27.05;;;5.82;;
63312;SDS011;49442;45.640;13.812;2024-01-30T07:47:25;22.90;;;4.72;;
63312;SDS011;49442;45.640;13.812;2024-01-30T07:49:51;14.63;;;5.28;;
63312;SDS011;49442;45.640;13.812;2024-01-30T07:52:17;13.32;;;4.72;;
63312;SDS011;49442;45.640;13.812;2024-01-30T07:54:43;23.33;;;4.80;;
63312;SDS011;49442;45.640;13.812;2024-01-30T07:57:09;18.77;;;4.55;;
63312;SDS011;49442;45.640;13.812;2024-01-30T07:59:35;18.50;;;6.25;;
63312;SDS011;49442;45.640;13.812;2024-01-30T08:02:00;28.15;;;6.15;;
63312;SDS011;49442;45.640;13.812;2024-01-30T08:04:26;21.52;;;5.47;;
63312;SDS011;49442;45.640;13.812;2024-01-30T08:06:52;16.20;;;5.97;;
63312;SDS011;49442;45.640;13.812;2024-01-30T08:09:18;12.68;;;6.10;;
63312;SDS011;49442;45.640;13.812;2024-01-30T08:11:43;18.38;;;6.80;;
63312;SDS011;49442;45.640;13.812;2024-01-30T08:14:09;14.57;;;6.25;;
63312;SDS011;49442;45.640;13.812;2024-01-30T08:16:35;12.80;;;5.93;;
63312;SDS011;49442;45.640;13.812;2024-01-30T08:19:00;12.00;;;5.50;;
63312;SDS011;49442;45.640;13.812;2024-01-30T08:21:26;15.73;;;5.05;;
63312;SDS011;49442;45.640;13.812;2024-01-30T08:23:52;17.75;;;5.72;;
63312;SDS011;49442;45.640;13.812;2024-01-30T08:26:17;17.83;;;5.60;;
63312;SDS011;49442;45.640;13.812;2024-01-30T08:28:43;12.98;;;6.82;;
63312;SDS011;49442;45.640;13.812;2024-01-30T08:31:10;26.27;;;7.22;;
63312;SDS011;49442;45.640;13.812;2024-01-30T08:33:37;17.80;;;6.47;;
63312;SDS011;49442;45.640;13.812;2024-01-30T08:36:02;16.85;;;8.48;;
63312;SDS011;49442;45.640;13.812;2024-01-30T08:38:28;16.23;;;7.35;;
63312;SDS011;49442;45.640;13.812;2024-01-30T08:40:54;13.68;;;6.78;;
63312;SDS011;49442;45.640;13.812;2024-01-30T08:43:21;12.80;;;6.93;;
63312;SDS011;49442;45.640;13.812;2024-01-30T08:45:46;14.48;;;6.82;;
63312;SDS011;49442;45.640;13.812;2024-01-30T08:48:12;13.23;;;6.60;;
63312;SDS011;49442;45.640;13.812;2024-01-30T08:50:38;15.13;;;7.00;;
63312;SDS011;49442;45.640;13.812;2024-01-30T08:53:04;13.75;;;6.18;;
63312;SDS011;49442;45.640;13.812;2024-01-30T08:55:30;15.73;;;6.60;;
63312;SDS011;49442;45.640;13.812;2024-01-30T08:57:55;19.52;;;6.63;;
63312;SDS011;49442;45.640;13.812;2024-01-30T09:00:21;21.23;;;6.40;;
63312;SDS011;49442;45.640;13.812;2024-01-30T09:02:47;28.50;;;8.45;;
63312;SDS011;49442;45.640;13.812;2024-01-30T09:05:12;18.30;;;6.15;;
63312;SDS011;49442;45.640;13.812;2024-01-30T09:07:38;22.88;;;6.45;;
63312;SDS011;49442;45.640;13.812;2024-01-30T09:10:04;17.52;;;6.13;;
63312;SDS011;49442;45.640;13.812;2024-01-30T09:12:30;18.10;;;7.43;;
63312;SDS011;49442;45.640;13.812;2024-01-30T09:14:56;18.90;;;8.13;;
63312;SDS011;49442;45.640;13.812;2024-01-30T09:17:21;19.02;;;10.70;;
63312;SDS011;49442;45.640;13.812;2024-01-30T09:19:47;22.25;;;10.40;;
63312;SDS011;49442;45.640;13.812;2024-01-30T09:22:13;15.90;;;10.68;;
63312;SDS011;49442;45.640;13.812;2024-01-30T09:24:39;15.55;;;9.65;;
63312;SDS011;49442;45.640;13.812;2024-01-30T09:27:05;16.98;;;10.55;;
63312;SDS011;49442;45.640;13.812;2024-01-30T09:29:31;21.63;;;10.70;;
63312;SDS011;49442;45.640;13.812;2024-01-30T09:31:59;20.00;;;10.45;;
63312;SDS011;49442;45.640;13.812;2024-01-30T09:34:25;22.02;;;11.27;;
63312;SDS011;49442;45.640;13.812;2024-01-30T09:36:50;19.50;;;11.23;;
63312;SDS011;49442;45.640;13.812;2024-01-30T09:39:16;21.80;;;10.40;;
63312;SDS011;49442;45.640;13.812;2024-01-30T09:44:48;18.85;;;10.48;;
63312;SDS011;49442;45.640;13.812;2024-01-30T09:47:17;17.55;;;11.52;;
63312;SDS011;49442;45.640;13.812;2024-01-30T09:49:43;29.88;;;11.90;;
63312;SDS011;49442;45.640;13.812;2024-01-30T09:52:09;18.63;;;11.55;;
63312;SDS011;49442;45.640;13.812;2024-01-30T09:54:35;14.77;;;10.65;;
63312;SDS011;49442;45.640;13.812;2024-01-30T09:57:03;16.25;;;10.73;;
63312;SDS011;49442;45.640;13.812;2024-01-30T09:59:29;22.63;;;11.43;;
63312;SDS011;49442;45.640;13.812;2024-01-30T10:01:55;20.30;;;11.52;;
63312;SDS011;49442;45.640;13.812;2024-01-30T10:04:22;20.35;;;10.95;;
63312;SDS011;49442;45.640;13.812;2024-01-30T10:06:47;20.67;;;11.45;;
63312;SDS011;49442;45.640;13.812;2024-01-30T10:09:13;16.25;;;10.10;;
63312;SDS011;49442;45.640;13.812;2024-01-30T10:11:39;17.65;;;10.80;;
63312;SDS011;49442;45.640;13.812;2024-01-30T10:14:05;16.42;;;10.52;;
63312;SDS011;49442;45.640;13.812;2024-01-30T10:16:30;20.40;;;10.35;;
63312;SDS011;49442;45.640;13.812;2024-01-30T10:18:56;22.08;;;11.35;;
63312;SDS011;49442;45.640;13.812;2024-01-30T10:21:22;17.55;;;10.68;;
63312;SDS011;49442;45.640;13.812;2024-01-30T10:23:49;14.63;;;10.65;;
63312;SDS011;49442;45.640;13.812;2024-01-30T10:26:16;23.40;;;10.48;;
63312;SDS011;49442;45.640;13.812;2024-01-30T10:28:42;19.35;;;11.23;;
63312;SDS011;49442;45.640;13.812;2024-01-30T10:31:08;19.63;;;11.32;;
63312;SDS011;49442;45.640;13.812;2024-01-30T10:33:33;18.45;;;9.80;;
63312;SDS011;49442;45.640;13.812;2024-01-30T10:36:06;18.10;;;11.63;;
63312;SDS011;49442;45.640;13.812;2024-01-30T10:38:32;14.73;;;9.57;;
63312;SDS011;49442;45.640;13.812;2024-01-30T10:40:58;20.80;;;10.07;;
63312;SDS011;49442;45.640;13.812;2024-01-30T10:43:31;20.52;;;10.45;;
63312;SDS011;49442;45.640;13.812;2024-01-30T10:46:09;17.33;;;10.20;;
63312;SDS011;49442;45.640;13.812;2024-01-30T10:48:42;19.75;;;9.27;;
63312;SDS011;49442;45.640;13.812;2024-01-30T10:51:10;18.88;;;8.88;;
63312;SDS011;49442;45.640;13.812;2024-01-30T10:53:37;23.48;;;9.10;;
63312;SDS011;49442;45.640;13.812;2024-01-30T10:56:04;17.45;;;7.80;;
63312;SDS011;49442;45.640;13.812;2024-01-30T10:58:31;16.10;;;7.35;;
63312;SDS011;49442;45.640;13.812;2024-01-30T11:00:56;14.38;;;7.60;;
63312;SDS011;49442;45.640;13.812;2024-01-30T11:03:22;17.73;;;7.95;;
63312;SDS011;49442;45.640;13.812;2024-01-30T11:05:49;15.20;;;8.45;;
63312;SDS011;49442;45.640;13.812;2024-01-30T11:08:22;17.92;;;9.73;;
63312;SDS011;49442;45.640;13.812;2024-01-30T11:10:54;17.73;;;10.35;;
63312;SDS011;49442;45.640;13.812;2024-01-30T11:13:21;14.50;;;9.73;;
63312;SDS011;49442;45.640;13.812;2024-01-30T11:15:47;20.75;;;9.43;;
63312;SDS011;49442;45.640;13.812;2024-01-30T11:18:22;15.88;;;9.55;;
63312;SDS011;49442;45.640;13.812;2024-01-30T11:20:49;12.27;;;8.75;;
63312;SDS011;49442;45.640;13.812;2024-01-30T11:23:15;24.20;;;9.40;;
63312;SDS011;49442;45.640;13.812;2024-01-30T11:25:40;13.20;;;8.65;;
63312;SDS011;49442;45.640;13.812;2024-01-30T11:28:12;13.23;;;8.82;;
63312;SDS011;49442;45.640;13.812;2024-01-30T11:30:40;13.18;;;8.95;;
63312;SDS011;49442;45.640;13.812;2024-01-30T11:35:42;18.02;;;8.43;;
63312;SDS011;49442;45.640;13.812;2024-01-30T11:38:13;14.82;;;8.85;;
63312;SDS011;49442;45.640;13.812;2024-01-30T11:40:39;20.35;;;9.77;;
63312;SDS011;49442;45.640;13.812;2024-01-30T11:43:06;18.55;;;8.77;;
63312;SDS011;49442;45.640;13.812;2024-01-30T11:45:34;27.30;;;9.52;;
63312;SDS011;49442;45.640;13.812;2024-01-30T11:48:01;15.20;;;9.20;;
63312;SDS011;49442;45.640;13.812;2024-01-30T11:50:30;14.25;;;9.52;;
63312;SDS011;49442;45.640;13.812;2024-01-30T11:52:57;14.23;;;8.98;;
63312;SDS011;49442;45.640;13.812;2024-01-30T11:55:25;19.23;;;9.27;;
63312;SDS011;49442;45.640;13.812;2024-01-30T11:57:51;17.38;;;8.45;;
63312;SDS011;49442;45.640;13.812;2024-01-30T12:00:19;13.80;;;8.88;;
63312;SDS011;49442;45.640;13.812;2024-01-30T12:02:49;19.23;;;8.77;;
63312;SDS011;49442;45.640;13.812;2024-01-30T12:05:24;17.77;;;8.27;;
63312;SDS011;49442;45.640;13.812;2024-01-30T12:07:50;25.38;;;8.95;;
63312;SDS011;49442;45.640;13.812;2024-01-30T12:10:16;14.60;;;8.48;;
63312;SDS011;49442;45.640;13.812;2024-01-30T12:12:49;13.65;;;8.55;;
63312;SDS011;49442;45.640;13.812;2024-01-30T12:15:15;16.40;;;9.98;;
63312;SDS011;49442;45.640;13.812;2024-01-30T12:17:41;15.20;;;9.10;;
63312;SDS011;49442;45.640;13.812;2024-01-30T12:20:08;16.70;;;9.32;;
63312;SDS011;49442;45.640;13.812;2024-01-30T12:22:43;18.00;;;9.07;;
63312;SDS011;49442;45.640;13.812;2024-01-30T12:25:14;15.88;;;8.70;;
63312;SDS011;49442;45.640;13.812;2024-01-30T12:27:43;16.42;;;9.30;;
63312;SDS011;49442;45.640;13.812;2024-01-30T12:30:11;15.20;;;9.50;;
63312;SDS011;49442;45.640;13.812;2024-01-30T12:32:42;14.73;;;9.05;;
63312;SDS011;49442;45.640;13.812;2024-01-30T12:35:13;16.35;;;9.50;;
63312;SDS011;49442;45.640;13.812;2024-01-30T12:37:39;13.40;;;9.63;;
63312;SDS011;49442;45.640;13.812;2024-01-30T12:40:09;13.50;;;9.35;;
63312;SDS011;49442;45.640;13.812;2024-01-30T12:42:36;23.98;;;14.70;;
63312;SDS011;49442;45.640;13.812;2024-01-30T12:45:03;20.92;;;10.68;;
63312;SDS011;49442;45.640;13.812;2024-01-30T12:47:29;16.67;;;10.25;;
63312;SDS011;49442;45.640;13.812;2024-01-30T12:49:55;14.27;;;9.45;;
63312;SDS011;49442;45.640;13.812;2024-01-30T12:52:21;13.20;;;9.32;;
63312;SDS011;49442;45.640;13.812;2024-01-30T12:54:48;18.75;;;9.52;;
63312;SDS011;49442;45.640;13.812;2024-01-30T12:57:14;17.88;;;10.65;;
63312;SDS011;49442;45.640;13.812;2024-01-30T12:59:40;24.83;;;10.50;;
63312;SDS011;49442;45.640;13.812;2024-01-30T13:02:05;16.92;;;8.90;;
63312;SDS011;49442;45.640;13.812;2024-01-30T13:04:32;24.10;;;8.90;;
63312;SDS011;49442;45.640;13.812;2024-01-30T13:06:58;16.52;;;9.20;;
63312;SDS011;49442;45.640;13.812;2024-01-30T13:09:25;16.23;;;9.38;;
63312;SDS011;49442;45.640;13.812;2024-01-30T13:11:51;16.85;;;9.02;;
63312;SDS011;49442;45.640;13.812;2024-01-30T13:14:17;14.82;;;9.60;;
63312;SDS011;49442;45.640;13.812;2024-01-30T13:16:43;16.17;;;9.48;;
63312;SDS011;49442;45.640;13.812;2024-01-30T13:19:09;14.77;;;9.40;;
63312;SDS011;49442;45.640;13.812;2024-01-30T13:21:34;16.50;;;9.75;;
63312;SDS011;49442;45.640;13.812;2024-01-30T13:24:00;24.48;;;9.27;;
63312;SDS011;49442;45.640;13.812;2024-01-30T13:26:26;13.95;;;8.15;;
63312;SDS011;49442;45.640;13.812;2024-01-30T13:28:52;28.15;;;12.73;;
63312;SDS011;49442;45.640;13.812;2024-01-30T13:31:19;20.13;;;11.27;;
63312;SDS011;49442;45.640;13.812;2024-01-30T13:33:44;23.15;;;12.63;;
63312;SDS011;49442;45.640;13.812;2024-01-30T13:36:10;17.23;;;9.57;;
63312;SDS011;49442;45.640;13.812;2024-01-30T13:38:37;14.60;;;9.30;;
63312;SDS011;49442;45.640;13.812;2024-01-30T13:41:04;18.13;;;9.38;;
63312;SDS011;49442;45.640;13.812;2024-01-30T13:43:30;17.10;;;9.70;;
63312;SDS011;49442;45.640;13.812;2024-01-30T13:45:55;22.48;;;9.82;;
63312;SDS011;49442;45.640;13.812;2024-01-30T13:48:21;23.20;;;10.05;;
63312;SDS011;49442;45.640;13.812;2024-01-30T13:50:47;20.83;;;10.57;;
63312;SDS011;49442;45.640;13.812;2024-01-30T13:53:13;19.77;;;10.52;;
63312;SDS011;49442;45.640;13.812;2024-01-30T13:55:39;22.23;;;10.73;;
63312;SDS011;49442;45.640;13.812;2024-01-30T13:58:05;24.08;;;11.45;;
63312;SDS011;49442;45.640;13.812;2024-01-30T14:00:31;16.65;;;10.63;;
63312;SDS011;49442;45.640;13.812;2024-01-30T14:02:57;15.65;;;9.65;;
63312;SDS011;49442;45.640;13.812;2024-01-30T14:05:24;20.17;;;10.75;;
63312;SDS011;49442;45.640;13.812;2024-01-30T14:07:50;15.77;;;10.25;;
63312;SDS011;49442;45.640;13.812;2024-01-30T14:10:17;14.10;;;10.18;;
63312;SDS011;49442;45.640;13.812;2024-01-30T14:12:43;14.77;;;9.20;;
63312;SDS011;49442;45.640;13.812;2024-01-30T14:15:09;19.33;;;9.73;;
63312;SDS011;49442;45.640;13.812;2024-01-30T14:17:36;16.83;;;10.18;;
63312;SDS011;49442;45.640;13.812;2024-01-30T14:20:05;15.00;;;9.93;;
63312;SDS011;49442;45.640;13.812;2024-01-30T14:22:32;16.90;;;9.95;;
63312;SDS011;49442;45.640;13.812;2024-01-30T14:24:58;15.13;;;8.90;;